Time;durP1;ratioP1;P1;durP2;ratioP2;P2;SDS_P1;SDS_P2;PMS_P1;PMS_P2;Temp;Humidity;BMP_temperature;BMP_pressure;BME280_temperature;BME280_humidity;BME280_pressure;Samples;Min_cycle;Max_cycle;Signal;HPM_P1;HPM_P2
2022/02/14 00:01:54;;;;;;;4.93;3.50;;;10.60;76.70;;;;;;4796059;29;20488;-81
2022/02/14 00:04:20;;;;;;;4.38;3.00;;;10.60;76.70;;;;;;4810861;29;20033;-80
2022/02/14 00:06:46;;;;;;;5.25;3.15;;;10.60;76.70;;;;;;4796388;29;20380;-80
2022/02/14 00:09:12;;;;;;;5.03;3.17;;;10.60;76.70;;;;;;4810652;29;20026;-81
2022/02/14 00:11:38;;;;;;;3.97;2.92;;;10.60;76.70;;;;;;4795673;29;20094;-81
2022/02/14 00:14:04;;;;;;;5.03;3.15;;;10.60;76.70;;;;;;4828539;29;20460;-80
2022/02/14 00:16:29;;;;;;;4.32;3.20;;;10.60;76.70;;;;;;4799097;29;20493;-80
2022/02/14 00:18:55;;;;;;;4.32;2.97;;;10.60;76.70;;;;;;4798486;29;20096;-79
2022/02/14 00:21:21;;;;;;;4.18;3.22;;;10.60;76.70;;;;;;4845216;29;20046;-80
2022/02/14 00:23:47;;;;;;;3.50;2.75;;;10.60;76.70;;;;;;4845511;29;20030;-81
2022/02/14 00:26:12;;;;;;;4.57;3.33;;;10.60;76.70;;;;;;4814610;29;20042;-81
2022/02/14 00:28:38;;;;;;;4.57;3.17;;;10.60;76.70;;;;;;4814266;29;20360;-79
2022/02/14 00:31:04;;;;;;;4.03;2.90;;;10.60;76.70;;;;;;4828652;29;20026;-79
2022/02/14 00:33:29;;;;;;;3.97;3.03;;;10.60;76.70;;;;;;4813786;29;20041;-79
2022/02/14 00:35:55;;;;;;;3.83;2.80;;;10.60;76.70;;;;;;4813748;29;20435;-80
2022/02/14 00:38:21;;;;;;;4.32;2.70;;;10.60;76.70;;;;;;4798997;29;20034;-81
2022/02/14 00:40:47;;;;;;;4.78;3.15;;;10.60;76.80;;;;;;4828600;29;20438;-80
2022/02/14 00:43:13;;;;;;;4.85;3.15;;;10.60;76.80;;;;;;4813756;29;20026;-79
2022/02/14 00:45:39;;;;;;;4.82;3.30;;;10.60;76.80;;;;;;4828308;29;20038;-80
2022/02/14 00:48:06;;;;;;;4.55;3.10;;;10.60;76.80;;;;;;4813615;29;20034;-80
2022/02/14 00:50:32;;;;;;;3.33;2.63;;;10.60;76.80;;;;;;4829083;29;20416;-79
2022/02/14 00:52:58;;;;;;;3.95;2.80;;;10.60;76.80;;;;;;4813085;29;20030;-80
2022/02/14 00:55:24;;;;;;;4.45;3.15;;;10.60;76.80;;;;;;4813160;29;20034;-80
2022/02/14 00:57:50;;;;;;;5.30;2.80;;;10.60;76.80;;;;;;4828145;29;20045;-79
2022/02/14 01:00:18;;;;;;;3.58;2.72;;;10.60;76.80;;;;;;4813383;29;20030;-79
2022/02/14 01:02:44;;;;;;;3.58;2.70;;;10.60;76.80;;;;;;4828384;29;20034;-80
2022/02/14 01:05:10;;;;;;;4.97;3.13;;;10.60;76.80;;;;;;4812924;29;20040;-79
2022/02/14 01:07:37;;;;;;;3.38;2.47;;;10.60;76.80;;;;;;4828153;29;20125;-79
2022/02/14 01:10:05;;;;;;;4.32;2.75;;;10.60;76.80;;;;;;4812840;29;20479;-80
2022/02/14 01:12:32;;;;;;;3.33;2.58;;;10.60;76.80;;;;;;4827936;29;20034;-80
2022/02/14 01:14:58;;;;;;;4.18;2.78;;;10.60;76.80;;;;;;4812546;29;20140;-80
2022/02/14 01:17:23;;;;;;;4.55;3.00;;;10.60;76.80;;;;;;4828279;29;20132;-81
2022/02/14 01:19:49;;;;;;;4.53;2.70;;;10.60;76.80;;;;;;4813753;29;20037;-80
2022/02/14 01:22:15;;;;;;;4.60;2.88;;;10.60;76.80;;;;;;4812792;29;20030;-79
2022/02/14 01:24:41;;;;;;;3.92;2.80;;;10.60;76.80;;;;;;4782993;29;20034;-80
2022/02/14 01:27:07;;;;;;;3.30;2.67;;;10.60;76.80;;;;;;4828327;29;20120;-79
2022/02/14 01:29:34;;;;;;;4.20;2.90;;;10.60;76.80;;;;;;4827584;29;20460;-80
2022/02/14 01:32:00;;;;;;;5.20;2.78;;;10.60;76.80;;;;;;4812372;29;20040;-80
2022/02/14 01:34:26;;;;;;;3.88;2.90;;;10.60;76.80;;;;;;4812730;29;20121;-80
2022/02/14 01:36:52;;;;;;;4.55;2.90;;;10.60;76.80;;;;;;4812723;29;20405;-82
2022/02/14 01:39:18;;;;;;;4.03;2.78;;;10.60;76.80;;;;;;4797952;29;20034;-80
2022/02/14 01:41:44;;;;;;;4.63;2.60;;;10.60;77.40;;;;;;4827169;29;20101;-81
2022/02/14 01:44:30;;;;;;;4.15;2.65;;;10.60;76.80;;;;;;4828127;29;20049;-81
2022/02/14 01:46:56;;;;;;;4.40;2.78;;;10.60;76.80;;;;;;4812581;29;20133;-79
2022/02/14 01:49:22;;;;;;;4.65;2.40;;;10.60;76.80;;;;;;4812960;29;20480;-80
2022/02/14 01:51:47;;;;;;;4.40;2.60;;;10.70;76.90;;;;;;4812219;29;20510;-80
2022/02/14 01:54:13;;;;;;;3.22;2.40;;;10.70;76.90;;;;;;4812254;29;20030;-80
2022/02/14 01:56:39;;;;;;;3.35;2.55;;;10.60;76.90;;;;;;4812256;29;20038;-80
2022/02/14 01:59:05;;;;;;;4.07;2.30;;;10.70;76.90;;;;;;4827926;29;20045;-80
2022/02/14 02:01:31;;;;;;;3.05;2.20;;;10.70;76.90;;;;;;4827238;29;20080;-81
2022/02/14 02:03:57;;;;;;;3.42;2.47;;;10.70;76.90;;;;;;4812212;29;20395;-80
2022/02/14 02:06:22;;;;;;;4.30;2.45;;;10.70;76.90;;;;;;4811960;29;20038;-80
2022/02/14 02:08:49;;;;;;;3.47;2.30;;;10.70;76.90;;;;;;4811908;29;20513;-80
2022/02/14 02:14:00;;;;;;;3.67;2.40;;;10.70;76.90;;;;;;4844058;29;20054;-81
2022/02/14 02:16:26;;;;;;;3.28;2.38;;;10.70;76.90;;;;;;4826930;29;20129;-80
2022/02/14 02:18:52;;;;;;;3.35;2.33;;;10.70;77.00;;;;;;4811841;29;20062;-80
2022/02/14 02:21:18;;;;;;;2.97;2.30;;;10.70;77.00;;;;;;4811777;29;20104;-81
2022/02/14 02:23:47;;;;;;;3.30;2.20;;;10.70;77.00;;;;;;4811912;29;20038;-81
2022/02/14 02:26:13;;;;;;;3.35;2.25;;;10.70;77.00;;;;;;4827078;29;20481;-80
2022/02/14 02:28:38;;;;;;;3.35;2.13;;;10.70;76.90;;;;;;4811998;29;20120;-80
2022/02/14 02:31:05;;;;;;;4.95;2.42;;;10.70;76.90;;;;;;4811584;29;20076;-80
2022/02/14 02:33:32;;;;;;;3.75;2.40;;;10.80;77.00;;;;;;4811826;29;20086;-80
2022/02/14 02:36:00;;;;;;;3.38;2.63;;;10.80;77.00;;;;;;4842498;29;20034;-80
2022/02/14 02:38:27;;;;;;;2.95;2.17;;;10.80;77.00;;;;;;4827263;29;20037;-80
2022/02/14 02:40:52;;;;;;;3.20;2.22;;;10.80;77.00;;;;;;4811467;29;20026;-82
2022/02/14 02:43:19;;;;;;;4.15;2.35;;;10.80;77.00;;;;;;4811614;29;20041;-80
2022/02/14 02:45:45;;;;;;;2.88;2.10;;;10.80;77.00;;;;;;4811779;29;20030;-81
2022/02/14 02:48:11;;;;;;;2.15;1.95;;;10.80;77.00;;;;;;4811674;29;20038;-80
2022/02/14 02:51:01;;;;;;;4.28;2.30;;;10.80;77.00;;;;;;4811526;29;20034;-80
2022/02/14 02:53:23;;;;;;;3.85;2.08;;;10.80;77.00;;;;;;4826427;29;20487;-81
2022/02/14 02:55:49;;;;;;;4.03;2.47;;;10.80;77.00;;;;;;4826809;29;20082;-79
2022/02/14 02:58:14;;;;;;;3.53;2.28;;;10.80;77.00;;;;;;4796329;29;20038;-80
2022/02/14 03:00:40;;;;;;;3.45;2.33;;;10.80;77.00;;;;;;4811582;29;20118;-80
2022/02/14 03:03:07;;;;;;;4.28;2.80;;;10.80;77.00;;;;;;4796970;29;20467;-80
2022/02/14 03:05:33;;;;;;;4.43;2.50;;;10.80;77.00;;;;;;4781517;29;20045;-80
2022/02/14 03:07:59;;;;;;;3.30;2.30;;;10.80;77.00;;;;;;4811290;29;20060;-82
2022/02/14 03:10:24;;;;;;;3.92;2.33;;;10.80;77.00;;;;;;4796894;29;20041;-81
2022/02/14 03:12:51;;;;;;;3.03;2.33;;;10.80;77.00;;;;;;4810800;29;20038;-79
2022/02/14 03:15:16;;;;;;;3.17;2.05;;;10.80;77.00;;;;;;4796836;29;20432;-81
2022/02/14 03:17:42;;;;;;;3.53;2.22;;;10.80;77.10;;;;;;4811042;29;20046;-81
2022/02/14 03:20:09;;;;;;;2.97;2.00;;;10.90;77.10;;;;;;4826841;29;20085;-80
2022/02/14 03:22:35;;;;;;;3.25;2.20;;;10.90;77.10;;;;;;4826056;29;20033;-80
2022/02/14 03:25:00;;;;;;;3.70;2.17;;;10.90;77.10;;;;;;4811023;29;20060;-80
2022/02/14 03:27:26;;;;;;;4.47;2.30;;;10.90;77.10;;;;;;4811672;29;20042;-80
2022/02/14 03:29:52;;;;;;;2.35;1.85;;;10.90;77.10;;;;;;4811117;29;20382;-80
2022/02/14 03:32:17;;;;;;;3.60;2.05;;;10.90;77.10;;;;;;4826301;29;20038;-81
2022/02/14 03:34:43;;;;;;;2.95;2.10;;;10.90;77.10;;;;;;4811023;29;20090;-79
2022/02/14 03:37:09;;;;;;;2.75;2.03;;;10.90;77.20;;;;;;4795586;29;20384;-79
2022/02/14 03:39:36;;;;;;;3.63;2.28;;;10.90;77.20;;;;;;4810869;29;20121;-79
2022/02/14 03:42:02;;;;;;;2.88;2.03;;;10.90;77.10;;;;;;4810546;29;20439;-80
2022/02/14 03:44:28;;;;;;;2.30;1.80;;;10.90;77.10;;;;;;4826100;29;20076;-80
2022/02/14 03:46:54;;;;;;;3.65;2.10;;;10.90;77.10;;;;;;4826064;29;20480;-79
2022/02/14 03:49:19;;;;;;;3.20;2.13;;;11.00;77.20;;;;;;4814747;29;20045;-80
2022/02/14 03:51:45;;;;;;;4.22;2.10;;;11.00;77.20;;;;;;4845990;29;20041;-79
2022/02/14 03:54:11;;;;;;;3.42;2.20;;;11.00;77.20;;;;;;4784198;29;20048;-80
2022/02/14 03:56:37;;;;;;;3.13;2.10;;;11.00;77.20;;;;;;4814312;29;20065;-80
2022/02/14 03:59:02;;;;;;;3.30;1.90;;;11.00;77.20;;;;;;4829809;29;20041;-81
2022/02/14 04:01:28;;;;;;;2.53;2.10;;;10.90;77.20;;;;;;4814618;29;20034;-80
2022/02/14 04:03:55;;;;;;;2.40;1.80;;;11.00;77.20;;;;;;4814070;29;20110;-80
2022/02/14 04:06:21;;;;;;;2.15;1.95;;;11.00;77.20;;;;;;4829307;29;20117;-80
2022/02/14 04:08:47;;;;;;;2.88;2.00;;;11.00;77.20;;;;;;4814814;29;20106;-80
2022/02/14 04:11:13;;;;;;;2.88;1.95;;;11.00;77.20;;;;;;4814314;29;20038;-80
2022/02/14 04:13:38;;;;;;;2.60;2.00;;;11.00;77.20;;;;;;4813631;29;20491;-80
2022/02/14 04:16:04;;;;;;;2.40;1.85;;;11.10;77.30;;;;;;4814101;29;20030;-81
2022/02/14 04:18:30;;;;;;;2.22;1.88;;;11.10;77.30;;;;;;4813502;29;20042;-80
2022/02/14 04:20:56;;;;;;;2.75;1.80;;;11.10;77.20;;;;;;4813631;29;20037;-80
2022/02/14 04:23:22;;;;;;;3.03;2.03;;;11.10;77.30;;;;;;4828861;29;20030;-79
2022/02/14 04:25:48;;;;;;;2.22;1.70;;;11.10;77.30;;;;;;4813948;29;20033;-80
2022/02/14 04:28:14;;;;;;;3.22;2.10;;;11.10;77.20;;;;;;4813722;29;20026;-79
2022/02/14 04:30:40;;;;;;;3.17;1.70;;;11.10;77.20;;;;;;4813945;29;20046;-81
2022/02/14 04:33:06;;;;;;;2.03;1.70;;;11.10;77.30;;;;;;4814366;29;20063;-81
2022/02/14 04:35:33;;;;;;;2.80;1.88;;;11.10;77.20;;;;;;4828689;29;20049;-80
2022/02/14 04:37:59;;;;;;;4.57;2.00;;;11.10;77.30;;;;;;4828755;29;20086;-79
2022/02/14 04:40:31;;;;;;;2.03;1.80;;;11.20;77.30;;;;;;4813568;29;20034;-81
2022/02/14 04:42:58;;;;;;;2.60;1.80;;;11.20;77.30;;;;;;4813357;29;20467;-80
2022/02/14 04:45:25;;;;;;;2.75;2.00;;;11.20;77.30;;;;;;4813423;29;20169;-80
2022/02/14 04:47:51;;;;;;;4.10;1.85;;;11.20;78.00;;;;;;4828362;29;20046;-80
2022/02/14 04:50:17;;;;;;;2.83;1.85;;;11.20;77.30;;;;;;4813339;29;20117;-81
2022/02/14 04:52:42;;;;;;;2.75;1.88;;;11.20;77.30;;;;;;4844668;29;20034;-80
2022/02/14 04:55:09;;;;;;;2.22;1.70;;;11.20;77.30;;;;;;4813248;29;20034;-81
2022/02/14 04:57:35;;;;;;;2.30;1.70;;;11.20;77.30;;;;;;4783029;29;20049;-80
2022/02/14 05:00:04;;;;;;;2.90;1.70;;;11.20;77.30;;;;;;4827541;29;20063;-80
2022/02/14 05:02:29;;;;;;;2.50;1.70;;;11.20;77.30;;;;;;4828451;29;20034;-80
2022/02/14 05:04:55;;;;;;;3.17;1.80;;;11.20;77.30;;;;;;4783251;29;20507;-80
2022/02/14 05:07:21;;;;;;;2.58;1.60;;;11.30;77.40;;;;;;4812974;29;20048;-82
2022/02/14 05:09:47;;;;;;;3.20;2.00;;;11.20;77.30;;;;;;4783188;29;20022;-80
2022/02/14 05:12:12;;;;;;;2.78;1.80;;;11.30;77.30;;;;;;4798227;29;20090;-80
2022/02/14 05:14:38;;;;;;;2.08;1.70;;;11.30;77.40;;;;;;4782647;29;20388;-80
2022/02/14 05:17:04;;;;;;;2.45;1.77;;;11.30;77.30;;;;;;4812485;29;20044;-79
2022/02/14 05:19:29;;;;;;;3.03;2.00;;;11.30;77.30;;;;;;4812779;29;20041;-80
2022/02/14 05:21:55;;;;;;;3.15;1.90;;;11.30;77.30;;;;;;4782566;29;20550;-79
2022/02/14 05:24:21;;;;;;;2.95;1.83;;;11.30;77.30;;;;;;4827886;29;20038;-78
2022/02/14 05:26:47;;;;;;;2.50;1.70;;;11.30;77.30;;;;;;4828453;29;20071;-79
2022/02/14 05:29:12;;;;;;;2.50;1.70;;;11.30;77.30;;;;;;4827972;29;20038;-77
2022/02/14 05:31:38;;;;;;;3.20;1.85;;;11.40;77.30;;;;;;4798129;29;20522;-78
2022/02/14 05:34:04;;;;;;;2.55;1.80;;;11.40;77.30;;;;;;4827190;29;20436;-80
2022/02/14 05:36:30;;;;;;;2.78;1.85;;;11.40;77.30;;;;;;4812354;29;20034;-78
2022/02/14 05:38:55;;;;;;;2.28;1.60;;;11.40;77.30;;;;;;4828052;29;20072;-79
2022/02/14 05:41:22;;;;;;;2.42;1.98;;;11.40;77.30;;;;;;4828146;29;20108;-78
2022/02/14 05:43:48;;;;;;;2.83;1.73;;;11.40;77.30;;;;;;4843775;29;20082;-81
2022/02/14 05:46:13;;;;;;;2.50;1.65;;;11.40;77.30;;;;;;4812243;29;20061;-78
2022/02/14 05:48:43;;;;;;;2.05;1.60;;;11.40;77.30;;;;;;4812300;29;20102;-79
2022/02/14 05:51:10;;;;;;;2.95;1.60;;;11.40;77.30;;;;;;4812316;29;20065;-79
2022/02/14 05:53:37;;;;;;;2.60;1.70;;;11.50;77.40;;;;;;4812207;29;20098;-78
2022/02/14 05:56:03;;;;;;;1.83;1.67;;;11.50;77.40;;;;;;4827595;29;20034;-78
2022/02/14 05:58:29;;;;;;;3.22;1.70;;;11.50;77.40;;;;;;4827252;29;20197;-78
2022/02/14 06:00:55;;;;;;;1.65;1.40;;;11.50;77.30;;;;;;4812001;29;20125;-78
2022/02/14 06:03:20;;;;;;;1.60;1.45;;;11.50;77.30;;;;;;4826690;29;20038;-79
2022/02/14 06:05:46;;;;;;;3.30;1.60;;;11.50;77.30;;;;;;4843591;29;20034;-78
2022/02/14 06:08:12;;;;;;;1.67;1.50;;;11.50;77.30;;;;;;4827196;29;20038;-79
2022/02/14 06:10:37;;;;;;;1.90;1.63;;;11.50;77.30;;;;;;4781407;29;20112;-78
2022/02/14 06:13:03;;;;;;;2.28;1.60;;;11.60;77.40;;;;;;4827089;29;20058;-78
2022/02/14 06:15:29;;;;;;;1.92;1.60;;;11.60;77.30;;;;;;4811407;29;20121;-78
2022/02/14 06:17:55;;;;;;;2.40;1.83;;;11.50;77.30;;;;;;4826768;29;20037;-80
2022/02/14 06:20:20;;;;;;;2.05;1.65;;;11.60;77.30;;;;;;4796700;29;20030;-79
2022/02/14 06:22:46;;;;;;;1.65;1.50;;;11.60;77.30;;;;;;4811823;29;20086;-77
2022/02/14 06:25:12;;;;;;;2.47;1.60;;;11.60;77.30;;;;;;4812196;29;20367;-78
2022/02/14 06:27:37;;;;;;;2.42;1.58;;;11.60;78.00;;;;;;4811624;29;20407;-78
2022/02/14 06:30:05;;;;;;;3.03;1.67;;;11.60;77.30;;;;;;4811968;29;20498;-78
2022/02/14 06:32:31;;;;;;;1.70;1.40;;;11.60;77.30;;;;;;4826584;29;20082;-79
2022/02/14 06:34:57;;;;;;;2.05;1.58;;;11.70;77.40;;;;;;4811283;29;20171;-78
2022/02/14 06:37:23;;;;;;;1.70;1.50;;;11.70;77.40;;;;;;4811666;29;20466;-79
2022/02/14 06:39:49;;;;;;;2.70;1.70;;;11.70;77.30;;;;;;4828155;29;20048;-77
2022/02/14 06:42:14;;;;;;;2.10;1.60;;;11.70;77.30;;;;;;4811831;29;20051;-78
2022/02/14 06:44:40;;;;;;;2.72;1.77;;;11.70;77.30;;;;;;4812659;29;20367;-80
2022/02/14 06:47:06;;;;;;;1.50;1.40;;;11.70;77.30;;;;;;4811912;29;20046;-78
2022/02/14 06:49:32;;;;;;;3.03;1.67;;;11.70;77.30;;;;;;4811356;29;20125;-79
2022/02/14 06:51:58;;;;;;;1.63;1.50;;;11.70;77.30;;;;;;4826305;29;20380;-79
2022/02/14 06:54:23;;;;;;;2.42;1.90;;;11.80;77.30;;;;;;4811335;29;20087;-79
2022/02/14 06:56:49;;;;;;;1.90;1.60;;;11.80;77.30;;;;;;4811203;29;20090;-78
2022/02/14 06:59:15;;;;;;;1.75;1.40;;;11.80;77.30;;;;;;4811249;29;20438;-81
2022/02/14 07:01:42;;;;;;;2.25;1.60;;;11.80;77.30;;;;;;4796723;29;20034;-80
2022/02/14 07:04:07;;;;;;;1.65;1.50;;;11.80;77.90;;;;;;4811097;29;20475;-80
2022/02/14 07:06:33;;;;;;;2.30;1.70;;;11.80;77.30;;;;;;4827378;29;20048;-80
2022/02/14 07:08:59;;;;;;;1.95;1.50;;;11.80;77.30;;;;;;4810766;29;20510;-79
2022/02/14 07:11:25;;;;;;;1.95;1.40;;;11.80;77.30;;;;;;4796243;29;20144;-79
2022/02/14 07:13:51;;;;;;;1.85;1.60;;;11.80;77.30;;;;;;4826721;29;20449;-79
2022/02/14 07:16:17;;;;;;;1.75;1.50;;;11.80;77.30;;;;;;4810863;29;20124;-79
2022/02/14 07:18:43;;;;;;;1.50;1.40;;;11.80;77.30;;;;;;4826951;29;20387;-80
2022/02/14 07:21:09;;;;;;;2.20;1.63;;;11.80;77.30;;;;;;4812275;29;20068;-79
2022/02/14 07:23:35;;;;;;;2.38;1.60;;;11.80;77.20;;;;;;4815191;29;20092;-80
2022/02/14 07:26:01;;;;;;;2.40;1.60;;;11.80;77.20;;;;;;4829653;29;20038;-80
2022/02/14 07:28:26;;;;;;;2.95;1.70;;;11.80;77.20;;;;;;4814670;29;20122;-78
2022/02/14 07:30:52;;;;;;;1.92;1.60;;;11.90;77.30;;;;;;4799200;29;20403;-78
2022/02/14 07:33:20;;;;;;;1.83;1.40;;;11.90;77.30;;;;;;4845976;29;20041;-78
2022/02/14 07:35:46;;;;;;;1.75;1.60;;;11.90;77.30;;;;;;4845765;29;20034;-78
2022/02/14 07:38:12;;;;;;;2.60;1.70;;;11.90;77.30;;;;;;4814557;29;20038;-78
2022/02/14 07:40:38;;;;;;;2.40;1.50;;;11.90;77.20;;;;;;4814625;29;20041;-79
2022/02/14 07:43:04;;;;;;;2.35;1.50;;;11.90;77.20;;;;;;4829570;29;20054;-78
2022/02/14 07:45:30;;;;;;;2.90;1.60;;;11.90;77.20;;;;;;4814785;29;20034;-78
2022/02/14 07:47:56;;;;;;;1.90;1.65;;;12.00;77.30;;;;;;4829560;29;20056;-81
2022/02/14 07:50:23;;;;;;;2.42;1.50;;;11.90;77.20;;;;;;4814796;29;20471;-81
2022/02/14 07:52:50;;;;;;;1.60;1.38;;;11.90;77.20;;;;;;4829599;29;20082;-78
2022/02/14 07:55:16;;;;;;;2.20;1.50;;;12.00;77.30;;;;;;4845528;29;20048;-79
2022/02/14 07:57:42;;;;;;;3.22;1.70;;;12.00;77.20;;;;;;4814308;29;20475;-79
2022/02/14 08:00:09;;;;;;;1.75;1.42;;;12.00;77.20;;;;;;4829340;29;20089;-80
2022/02/14 08:02:40;;;;;;;1.67;1.40;;;12.00;77.20;;;;;;4829931;29;20045;-80
2022/02/14 08:05:07;;;;;;;2.70;1.60;;;12.00;77.20;;;;;;4829218;29;20038;-79
2022/02/14 08:07:33;;;;;;;1.98;1.65;;;12.00;77.20;;;;;;4845414;29;20037;-79
2022/02/14 08:09:59;;;;;;;2.05;1.52;;;12.00;77.20;;;;;;4828836;29;20041;-81
2022/02/14 08:12:25;;;;;;;2.30;1.83;;;12.00;77.80;;;;;;4813862;29;20034;-80
2022/02/14 08:14:52;;;;;;;2.38;1.75;;;12.10;77.20;;;;;;4826341;29;20156;-81
2022/02/14 08:17:18;;;;;;;2.25;1.60;;;12.10;77.20;;;;;;4810846;29;20049;-80
2022/02/14 08:19:43;;;;;;;2.50;1.50;;;12.10;77.30;;;;;;4827348;29;20034;-79
2022/02/14 08:22:09;;;;;;;2.22;1.70;;;12.10;77.20;;;;;;4811134;29;20101;-80
2022/02/14 08:24:35;;;;;;;2.58;1.50;;;12.10;77.20;;;;;;4810564;29;20031;-80
2022/02/14 08:27:03;;;;;;;1.92;1.58;;;12.10;77.10;;;;;;4810778;29;20095;-79
2022/02/14 08:29:29;;;;;;;1.80;1.60;;;12.10;77.70;;;;;;4810754;29;20129;-80
2022/02/14 08:31:55;;;;;;;2.20;1.52;;;12.20;77.20;;;;;;4810596;29;20030;-80
2022/02/14 08:34:21;;;;;;;2.17;1.50;;;12.20;77.10;;;;;;4825122;29;20079;-79
2022/02/14 08:36:48;;;;;;;1.48;1.38;;;12.20;77.10;;;;;;4810835;29;20137;-79
2022/02/14 08:39:14;;;;;;;1.40;1.30;;;12.20;77.20;;;;;;4827571;29;20097;-79
2022/02/14 08:41:41;;;;;;;1.52;1.40;;;12.20;77.10;;;;;;4810571;29;20027;-77
2022/02/14 08:44:09;;;;;;;2.50;1.48;;;12.20;77.10;;;;;;4825487;29;20069;-80
2022/02/14 08:46:35;;;;;;;1.60;1.35;;;12.20;77.10;;;;;;4810340;29;20106;-79
2022/02/14 08:49:01;;;;;;;1.40;1.30;;;12.20;77.10;;;;;;4810395;29;20476;-85
2022/02/14 08:51:26;;;;;;;1.63;1.40;;;12.20;77.10;;;;;;4825387;29;20030;-80
2022/02/14 08:53:53;;;;;;;1.40;1.30;;;12.20;77.10;;;;;;4795260;29;20046;-79
2022/02/14 08:56:19;;;;;;;1.20;1.10;;;12.20;77.10;;;;;;4826505;29;20118;-79
2022/02/14 08:58:48;;;;;;;1.35;1.25;;;12.20;77.10;;;;;;4794864;29;20125;-79
2022/02/14 09:01:15;;;;;;;1.23;1.13;;;12.20;77.10;;;;;;4825194;29;20091;-80
2022/02/14 09:03:41;;;;;;;1.35;1.20;;;12.20;77.10;;;;;;4810012;29;20031;-79
2022/02/14 09:06:08;;;;;;;1.48;1.20;;;12.20;77.10;;;;;;4824975;29;20046;-79
2022/02/14 09:08:33;;;;;;;1.13;1.10;;;12.20;77.10;;;;;;4826596;29;20034;-79
2022/02/14 09:10:59;;;;;;;1.25;1.15;;;12.20;77.10;;;;;;4810018;29;20129;-83
2022/02/14 09:13:26;;;;;;;1.13;1.00;;;12.20;77.10;;;;;;4825110;29;20061;-80
2022/02/14 09:15:52;;;;;;;1.15;1.05;;;12.20;77.10;;;;;;4825026;29;20117;-79
2022/02/14 09:18:19;;;;;;;1.25;1.15;;;12.20;77.10;;;;;;4795206;29;20042;-81
2022/02/14 09:20:46;;;;;;;1.60;1.13;;;12.20;77.10;;;;;;4825141;29;20095;-79
2022/02/14 09:23:13;;;;;;;1.10;1.00;;;12.20;77.10;;;;;;4825188;29;20480;-81
2022/02/14 09:25:39;;;;;;;1.00;1.00;;;12.20;77.10;;;;;;4810033;29;20070;-80
2022/02/14 09:28:05;;;;;;;1.15;1.05;;;12.20;77.10;;;;;;4825056;29;20041;-81
2022/02/14 09:30:31;;;;;;;1.00;1.00;;;12.30;77.10;;;;;;4809910;29;20042;-80
2022/02/14 09:32:58;;;;;;;1.25;1.02;;;12.20;77.10;;;;;;4795109;29;20079;-81
2022/02/14 09:35:26;;;;;;;1.02;0.93;;;12.20;77.10;;;;;;4809579;29;20074;-81
2022/02/14 09:38:04;;;;;;;1.10;1.00;;;12.30;77.10;;;;;;4825236;29;20037;-83
2022/02/14 09:40:30;;;;;;;0.90;0.90;;;12.30;77.20;;;;;;4824516;29;20458;-80
2022/02/14 09:42:59;;;;;;;0.95;0.93;;;12.30;77.10;;;;;;4809337;29;20027;-80
2022/02/14 09:45:27;;;;;;;1.20;1.10;;;12.20;77.10;;;;;;4809466;29;20116;-80
2022/02/14 09:47:59;;;;;;;1.30;1.00;;;12.30;77.10;;;;;;4809484;29;20091;-79
2022/02/14 09:50:25;;;;;;;1.17;1.00;;;12.30;77.10;;;;;;4824790;29;20073;-81
2022/02/14 09:52:52;;;;;;;1.38;1.15;;;12.30;77.20;;;;;;4824599;29;20099;-80
2022/02/14 09:55:19;;;;;;;1.00;1.00;;;12.20;77.10;;;;;;4809373;29;20049;-82
2022/02/14 09:57:45;;;;;;;1.15;1.02;;;12.30;77.10;;;;;;4825669;29;20078;-80
2022/02/14 10:00:12;;;;;;;1.17;1.10;;;12.30;77.20;;;;;;4812471;29;20062;-80
2022/02/14 10:02:39;;;;;;;0.90;0.90;;;12.30;77.20;;;;;;4826422;29;20027;-80
2022/02/14 10:05:06;;;;;;;1.17;1.08;;;12.30;77.20;;;;;;4809687;29;20030;-82
2022/02/14 10:07:47;;;;;;;1.45;1.30;;;12.30;77.20;;;;;;4824953;29;20039;-78
2022/02/14 10:10:25;;;;;;;1.20;1.10;;;12.30;77.30;;;;;;4825658;29;20067;-79
2022/02/14 10:12:57;;;;;;;1.42;1.08;;;12.30;77.20;;;;;;4826952;29;20038;-80
2022/02/14 10:15:24;;;;;;;1.20;1.10;;;12.30;77.20;;;;;;4827857;29;20077;-80
2022/02/14 10:17:52;;;;;;;1.25;1.15;;;12.30;77.20;;;;;;4844537;29;20034;-80
2022/02/14 10:20:21;;;;;;;1.45;1.35;;;12.30;77.20;;;;;;4828379;29;20459;-79
2022/02/14 10:22:56;;;;;;;1.42;1.33;;;12.40;77.30;;;;;;4827748;29;20489;-79
2022/02/14 10:25:25;;;;;;;1.30;1.20;;;12.40;77.30;;;;;;4844673;29;20038;-79
2022/02/14 10:27:50;;;;;;;1.50;1.40;;;12.40;77.30;;;;;;4828686;29;20033;-80
2022/02/14 10:30:16;;;;;;;1.48;1.38;;;12.40;77.30;;;;;;4813926;29;20459;-79
2022/02/14 10:32:52;;;;;;;1.60;1.50;;;12.40;77.30;;;;;;4813807;29;20065;-81
2022/02/14 10:35:19;;;;;;;1.40;1.30;;;12.50;77.40;;;;;;4813142;29;20063;-80
2022/02/14 10:37:46;;;;;;;1.52;1.42;;;12.50;77.40;;;;;;4812916;29;20056;-80
2022/02/14 10:40:30;;;;;;;1.67;1.55;;;12.50;77.40;;;;;;4844212;29;20034;-79
2022/02/14 10:42:57;;;;;;;2.00;1.65;;;12.50;77.50;;;;;;4812845;29;20082;-80
2022/02/14 10:45:22;;;;;;;1.75;1.65;;;12.50;77.40;;;;;;4844726;29;20034;-79
2022/02/14 10:47:50;;;;;;;1.90;1.70;;;12.60;77.50;;;;;;4813674;29;20038;-80
2022/02/14 10:50:23;;;;;;;2.10;1.75;;;12.60;78.20;;;;;;4812534;29;20474;-80
2022/02/14 10:52:55;;;;;;;2.17;1.70;;;12.60;77.60;;;;;;4813330;29;20516;-80
2022/02/14 10:55:21;;;;;;;2.13;1.90;;;12.60;77.70;;;;;;4828917;29;20030;-80
2022/02/14 10:57:49;;;;;;;1.77;1.65;;;12.60;77.70;;;;;;4827258;29;20041;-79
2022/02/14 11:00:25;;;;;;;2.13;1.80;;;12.70;77.80;;;;;;4827898;29;20068;-80
2022/02/14 11:02:58;;;;;;;2.58;1.90;;;12.70;77.90;;;;;;4827561;29;20478;-80
2022/02/14 11:05:26;;;;;;;1.65;1.55;;;12.70;77.80;;;;;;4844576;29;20038;-81
2022/02/14 11:07:54;;;;;;;2.20;2.00;;;12.70;77.80;;;;;;4812872;29;20030;-80
2022/02/14 11:10:21;;;;;;;2.20;2.00;;;12.70;77.90;;;;;;4812010;29;20030;-80
2022/02/14 11:12:59;;;;;;;2.10;1.90;;;12.70;77.80;;;;;;4826350;29;20368;-80
2022/02/14 11:15:28;;;;;;;2.30;2.00;;;12.80;78.00;;;;;;4826718;29;20054;-80
2022/02/14 11:17:59;;;;;;;3.08;2.30;;;12.80;77.90;;;;;;4816652;29;20040;-80
2022/02/14 11:20:25;;;;;;;2.42;1.90;;;12.80;78.00;;;;;;4842298;29;20034;-81
2022/02/14 11:22:54;;;;;;;2.10;1.92;;;12.80;78.00;;;;;;4807041;29;20097;-83
2022/02/14 11:25:27;;;;;;;2.83;2.20;;;12.90;78.10;;;;;;4844768;29;20125;-80
2022/02/14 11:28:24;;;;;;;2.22;2.03;;;12.90;78.20;;;;;;4827480;29;20036;-81
2022/02/14 11:31:05;;;;;;;2.22;2.03;;;12.90;78.20;;;;;;4825774;29;20050;-80
2022/02/14 11:33:31;;;;;;;2.40;2.08;;;12.90;78.20;;;;;;4826818;29;20030;-81
2022/02/14 11:35:58;;;;;;;2.83;2.15;;;12.90;78.20;;;;;;4826192;29;20038;-79
2022/02/14 11:38:43;;;;;;;3.75;2.10;;;13.00;78.30;;;;;;4842614;29;20069;-80
2022/02/14 11:41:25;;;;;;;2.42;2.10;;;12.90;78.30;;;;;;4811805;29;20034;-79
2022/02/14 11:43:53;;;;;;;1.90;1.80;;;13.00;78.30;;;;;;4811347;29;20030;-79
2022/02/14 11:46:30;;;;;;;2.35;1.80;;;13.00;78.20;;;;;;4826713;29;20041;-80
2022/02/14 11:49:02;;;;;;;2.10;1.90;;;13.10;78.30;;;;;;4842990;29;20072;-79
2022/02/14 11:51:52;;;;;;;2.47;1.98;;;13.10;78.30;;;;;;4826461;29;20038;-80
2022/02/14 11:54:44;;;;;;;2.53;2.00;;;13.10;78.40;;;;;;4826255;29;20088;-80
2022/02/14 11:57:33;;;;;;;3.22;2.05;;;13.10;78.30;;;;;;4810617;29;20159;-79
2022/02/14 12:00:23;;;;;;;2.95;2.20;;;13.10;78.30;;;;;;4811788;29;20367;-80
2022/02/14 12:02:55;;;;;;;2.13;1.92;;;13.20;78.30;;;;;;4826767;29;20045;-79
2022/02/14 12:05:50;;;;;;;2.55;2.20;;;13.20;78.30;;;;;;4826670;29;20086;-80
2022/02/14 12:08:17;;;;;;;2.50;2.15;;;13.20;78.40;;;;;;4804398;29;20049;-80
2022/02/14 12:10:57;;;;;;;2.08;1.85;;;13.20;78.20;;;;;;4814375;29;20066;-82
2022/02/14 12:13:30;;;;;;;2.88;2.20;;;13.30;78.30;;;;;;4845377;29;20062;-81
2022/02/14 12:21:39;;;;;;;2.40;2.03;;;13.30;78.30;;;;;;4846249;29;20041;-80
2022/02/14 12:24:12;;;;;;;2.10;1.90;;;13.40;78.30;;;;;;4845723;29;20030;-80
2022/02/14 12:26:38;;;;;;;2.58;1.98;;;13.40;78.20;;;;;;4828664;29;20483;-80
2022/02/14 12:31:55;;;;;;;2.40;1.92;;;13.40;78.20;;;;;;4845403;29;20039;-80
2022/02/14 12:34:29;;;;;;;2.45;2.08;;;13.50;78.10;;;;;;4813157;29;20409;-79
2022/02/14 12:37:04;;;;;;;2.00;1.80;;;13.50;78.10;;;;;;4814466;29;20097;-80
2022/02/14 12:39:34;;;;;;;;;;;13.50;78.10;;;;;;4828985;29;20456;-80
2022/02/14 12:42:10;;;;;;;2.28;1.83;;;13.50;78.00;;;;;;4828724;29;19961;-80
2022/02/14 12:44:36;;;;;;;3.25;1.90;;;13.50;77.90;;;;;;4828639;29;20054;-80
2022/02/14 12:47:02;;;;;;;2.70;2.20;;;13.50;78.00;;;;;;4813221;29;20033;-80
2022/02/14 12:49:28;;;;;;;2.63;2.20;;;13.50;78.00;;;;;;4798198;29;20479;-79
2022/02/14 12:52:08;;;;;;;2.72;2.10;;;13.50;78.00;;;;;;4813979;29;20041;-79
2022/02/14 12:54:33;;;;;;;2.95;2.08;;;13.50;78.00;;;;;;4828580;29;20490;-80
2022/02/14 12:56:59;;;;;;;2.60;2.13;;;13.60;78.00;;;;;;4813090;29;20076;-80
2022/02/14 12:59:33;;;;;;;2.30;2.10;;;13.60;77.90;;;;;;4813405;29;20186;-80
2022/02/14 13:01:58;;;;;;;2.95;1.90;;;13.60;77.90;;;;;;4828087;29;20037;-79